Time;durP1;ratioP1;P1;durP2;ratioP2;P2;SDS_P1;SDS_P2;PMS_P1;PMS_P2;Temp;Humidity;BMP_temperature;BMP_pressure;BME280_temperature;BME280_humidity;BME280_pressure;Samples;Min_cycle;Max_cycle;Signal;HPM_P1;HPM_P2
2022/06/20 00:00:11;;;;;;;8.17;1.63;;;14.80;99.90;;;;;;5052455;28;20549;-79
2022/06/20 00:02:41;;;;;;;2.70;1.60;;;14.80;99.90;;;;;;5052858;28;20185;-78
2022/06/20 00:05:10;;;;;;;8.30;1.80;;;14.80;99.90;;;;;;5051471;28;20177;-78
2022/06/20 00:07:36;;;;;;;5.23;2.23;;;14.80;99.90;;;;;;5051719;28;20173;-78
2022/06/20 00:10:02;;;;;;;4.27;1.67;;;14.60;99.90;;;;;;5051682;28;20668;-78
2022/06/20 00:12:28;;;;;;;6.03;1.83;;;14.70;99.90;;;;;;5051202;28;20202;-78
2022/06/20 00:14:57;;;;;;;2.17;1.83;;;14.60;99.90;;;;;;5051562;28;20283;-78
2022/06/20 00:17:23;;;;;;;7.50;1.83;;;14.50;99.90;;;;;;5051543;28;20175;-78
2022/06/20 00:19:48;;;;;;;6.00;1.80;;;14.50;99.90;;;;;;5051293;28;20173;-78
2022/06/20 00:22:14;;;;;;;7.67;1.80;;;14.40;99.90;;;;;;5051412;28;20247;-79
2022/06/20 00:24:40;;;;;;;6.73;1.80;;;14.50;99.90;;;;;;5053122;28;20192;-79
2022/06/20 00:27:06;;;;;;;9.23;2.00;;;14.40;99.90;;;;;;5052828;28;20663;-79
2022/06/20 00:29:40;;;;;;;3.90;1.93;;;14.40;99.90;;;;;;5052584;28;20204;-79
2022/06/20 00:32:07;;;;;;;7.10;2.17;;;14.50;99.90;;;;;;5052047;28;20333;-78
2022/06/20 00:34:33;;;;;;;4.83;2.10;;;14.40;99.90;;;;;;5052972;28;20231;-79
2022/06/20 00:36:59;;;;;;;10.13;2.10;;;14.40;99.90;;;;;;5053045;28;20173;-79
2022/06/20 00:39:25;;;;;;;6.50;1.80;;;14.50;99.90;;;;;;5052955;28;20792;-79
2022/06/20 00:41:51;;;;;;;8.90;2.13;;;14.50;99.90;;;;;;5051868;28;20222;-79
2022/06/20 00:44:33;;;;;;;6.47;2.03;;;14.50;99.90;;;;;;5052063;28;20651;-79
2022/06/20 00:47:21;;;;;;;7.67;2.00;;;14.40;99.90;;;;;;5052279;28;20203;-79
2022/06/20 00:50:00;;;;;;;8.47;2.00;;;14.50;99.90;;;;;;5053211;28;20243;-78
2022/06/20 00:52:43;;;;;;;6.70;2.10;;;14.50;99.90;;;;;;5051791;28;20200;-78
2022/06/20 00:55:21;;;;;;;6.73;2.10;;;14.40;99.90;;;;;;5050911;28;20211;-78
2022/06/20 00:57:56;;;;;;;6.13;1.90;;;14.40;99.90;;;;;;5050941;28;20169;-78
2022/06/20 01:00:25;;;;;;;6.80;2.27;;;14.20;99.90;;;;;;5050699;28;20633;-78
2022/06/20 01:03:13;;;;;;;9.00;2.27;;;14.40;99.90;;;;;;5051215;28;20565;-78
2022/06/20 01:05:44;;;;;;;7.03;2.03;;;14.50;99.90;;;;;;5052021;28;20305;-79
2022/06/20 01:08:20;;;;;;;9.97;2.10;;;14.50;99.90;;;;;;5051458;28;20188;-79
2022/06/20 01:11:05;;;;;;;5.23;1.77;;;14.30;99.90;;;;;;5051514;28;20172;-79
2022/06/20 01:13:32;;;;;;;10.13;1.90;;;14.40;99.90;;;;;;5051061;28;20196;-78
2022/06/20 01:16:15;;;;;;;6.90;2.00;;;14.40;99.90;;;;;;5051368;28;20179;-79
2022/06/20 01:18:44;;;;;;;8.37;1.90;;;14.30;99.90;;;;;;5051412;28;20224;-78
2022/06/20 01:21:24;;;;;;;3.83;1.80;;;14.20;99.90;;;;;;5052092;28;20172;-78
2022/06/20 01:23:55;;;;;;;11.67;2.27;;;14.20;99.90;;;;;;5051454;28;20173;-78
2022/06/20 01:26:38;;;;;;;6.73;2.37;;;14.10;99.90;;;;;;5050922;28;20209;-78
2022/06/20 01:29:07;;;;;;;10.20;2.03;;;14.10;99.90;;;;;;5050949;28;20270;-78
2022/06/20 01:31:40;;;;;;;9.13;2.40;;;14.20;99.90;;;;;;5051230;28;20177;-78
2022/06/20 01:34:06;;;;;;;8.63;1.70;;;14.00;99.90;;;;;;5050886;28;20200;-78
2022/06/20 01:39:23;;;;;;;15.77;2.57;;;14.00;99.90;;;;;;5052221;28;20655;-79
2022/06/20 01:44:41;;;;;;;7.87;1.67;;;14.00;99.90;;;;;;5052611;28;20244;-78
2022/06/20 01:47:06;;;;;;;8.33;2.07;;;13.90;99.90;;;;;;5051422;28;20305;-78
2022/06/20 01:49:33;;;;;;;10.07;2.00;;;13.90;99.90;;;;;;5050684;28;20315;-78
2022/06/20 01:52:20;;;;;;;6.87;2.10;;;13.90;99.90;;;;;;5050964;28;20196;-79
2022/06/20 01:55:08;;;;;;;9.50;2.03;;;13.80;99.90;;;;;;5051278;28;20249;-79
2022/06/20 01:57:37;;;;;;;10.73;2.37;;;13.80;99.90;;;;;;5051278;28;20166;-79
2022/06/20 02:00:09;;;;;;;11.27;2.30;;;14.00;99.90;;;;;;5050848;28;20263;-79
2022/06/20 02:02:41;;;;;;;7.83;2.60;;;14.00;99.90;;;;;;5052913;28;20211;-78
2022/06/20 02:05:10;;;;;;;8.90;2.20;;;14.00;99.90;;;;;;5055401;28;20249;-79
2022/06/20 02:07:36;;;;;;;8.90;2.20;;;14.10;99.90;;;;;;5054828;28;20539;-79
2022/06/20 02:10:05;;;;;;;10.30;2.27;;;14.20;99.90;;;;;;5054498;28;20173;-79
2022/06/20 02:12:34;;;;;;;6.97;1.90;;;14.10;99.90;;;;;;5054071;28;20192;-79
2022/06/20 02:15:01;;;;;;;10.23;2.40;;;14.20;99.90;;;;;;5054274;28;20648;-79
2022/06/20 02:17:39;;;;;;;7.20;2.03;;;14.10;99.90;;;;;;5054753;28;20180;-78
2022/06/20 02:20:11;;;;;;;10.17;2.00;;;14.00;99.90;;;;;;5054312;28;20191;-78
2022/06/20 02:22:38;;;;;;;6.67;2.00;;;14.10;99.90;;;;;;5053947;28;20193;-78
2022/06/20 02:25:11;;;;;;;8.27;2.17;;;14.10;99.90;;;;;;5054453;28;20183;-79
2022/06/20 02:27:40;;;;;;;9.83;2.40;;;14.10;99.90;;;;;;5055185;28;20186;-79
2022/06/20 02:30:08;;;;;;;9.07;1.93;;;14.10;99.90;;;;;;5054606;28;20207;-78
2022/06/20 02:32:39;;;;;;;7.00;2.20;;;14.00;99.90;;;;;;5053310;28;20557;-78
2022/06/20 02:35:09;;;;;;;7.53;2.17;;;14.20;99.90;;;;;;5053784;28;20200;-79
2022/06/20 02:37:36;;;;;;;5.50;2.10;;;14.20;99.90;;;;;;5053779;28;20180;-78
2022/06/20 02:40:05;;;;;;;10.77;2.30;;;14.10;99.90;;;;;;5055061;28;20168;-79
2022/06/20 02:43:11;;;;;;;9.47;2.00;;;14.20;99.90;;;;;;5055050;28;20289;-79
2022/06/20 02:45:38;;;;;;;11.60;2.50;;;14.10;99.90;;;;;;5034793;28;20210;-79
2022/06/20 02:48:07;;;;;;;11.83;2.33;;;14.00;99.90;;;;;;5055064;28;20172;-79
2022/06/20 02:50:39;;;;;;;10.90;2.53;;;14.10;99.90;;;;;;5054675;28;20169;-79
2022/06/20 02:53:12;;;;;;;5.37;2.23;;;14.10;99.90;;;;;;5054159;28;20200;-80
2022/06/20 02:55:38;;;;;;;8.30;2.27;;;14.00;99.90;;;;;;5054492;28;20206;-80
2022/06/20 02:58:11;;;;;;;10.10;2.03;;;14.00;99.90;;;;;;5054466;28;20638;-79
2022/06/20 03:00:49;;;;;;;9.13;1.90;;;14.10;99.90;;;;;;5054152;28;20207;-80
2022/06/20 03:03:35;;;;;;;6.87;2.20;;;14.10;99.90;;;;;;5053636;28;20338;-80
2022/06/20 03:06:03;;;;;;;9.53;2.10;;;14.00;99.90;;;;;;5055295;28;20173;-80
2022/06/20 03:08:31;;;;;;;5.93;2.03;;;14.10;99.90;;;;;;5054019;28;20187;-80
2022/06/20 03:11:03;;;;;;;9.60;2.60;;;14.10;99.90;;;;;;5054168;28;20178;-78
2022/06/20 03:13:30;;;;;;;6.70;1.77;;;14.20;99.90;;;;;;5053686;28;20274;-78
2022/06/20 03:15:56;;;;;;;13.43;2.80;;;14.10;99.90;;;;;;5053572;28;20200;-78
2022/06/20 03:18:23;;;;;;;6.07;1.80;;;14.10;99.90;;;;;;5054600;28;20505;-78
2022/06/20 03:20:49;;;;;;;12.43;2.40;;;14.00;99.90;;;;;;5064216;23;20338;-76
2022/06/20 03:23:26;;;;;;;14.60;2.97;;;14.00;99.90;;;;;;5051965;28;20299;-76
2022/06/20 03:25:54;;;;;;;12.27;2.53;;;14.10;99.90;;;;;;5052176;28;20173;-76
2022/06/20 03:28:22;;;;;;;8.63;2.50;;;14.00;99.90;;;;;;5052190;28;20184;-76
2022/06/20 03:30:49;;;;;;;10.30;2.37;;;13.90;99.90;;;;;;5052115;28;20175;-76
2022/06/20 03:33:16;;;;;;;9.53;2.10;;;13.80;99.90;;;;;;5051777;28;20195;-76
2022/06/20 03:35:48;;;;;;;9.90;2.97;;;13.90;99.90;;;;;;5051518;28;20208;-77
2022/06/20 03:38:15;;;;;;;12.43;2.33;;;13.90;99.90;;;;;;5051924;28;20584;-76
2022/06/20 03:40:42;;;;;;;13.37;2.53;;;13.80;99.90;;;;;;5051734;28;20572;-77
2022/06/20 03:43:12;;;;;;;12.00;2.53;;;13.80;99.90;;;;;;5051657;28;20196;-76
2022/06/20 03:45:43;;;;;;;13.47;2.93;;;13.60;99.90;;;;;;5051878;28;20220;-76
2022/06/20 03:48:16;;;;;;;8.80;2.97;;;13.50;99.90;;;;;;5051767;28;20174;-77
2022/06/20 03:51:20;;;;;;;9.40;2.40;;;13.50;99.90;;;;;;5051670;28;20180;-76
2022/06/20 03:54:16;;;;;;;10.00;3.00;;;13.60;99.90;;;;;;5050838;28;20239;-77
2022/06/20 03:57:06;;;;;;;7.47;2.80;;;13.60;99.90;;;;;;5051865;28;20541;-76
2022/06/20 03:59:43;;;;;;;10.27;2.70;;;13.70;99.90;;;;;;5051501;28;20635;-76
2022/06/20 04:02:39;;;;;;;15.37;3.17;;;13.60;99.90;;;;;;5051244;28;20256;-76
2022/06/20 04:05:08;;;;;;;10.00;2.53;;;13.50;99.90;;;;;;5051059;28;20184;-76
2022/06/20 04:07:53;;;;;;;12.63;2.87;;;13.60;99.90;;;;;;5051326;28;20524;-77
2022/06/20 04:13:33;;;;;;;12.27;3.20;;;13.80;99.90;;;;;;5052441;28;20227;-77
2022/06/20 04:16:18;;;;;;;9.90;3.30;;;13.80;99.90;;;;;;5051202;28;20295;-76
2022/06/20 04:19:00;;;;;;;9.90;3.07;;;13.70;99.90;;;;;;5051168;28;20180;-76
2022/06/20 04:21:34;;;;;;;8.90;2.30;;;13.80;99.90;;;;;;5050763;28;20222;-77
2022/06/20 04:24:13;;;;;;;13.40;3.00;;;13.70;99.90;;;;;;5050780;28;20185;-76
2022/06/20 04:27:06;;;;;;;13.20;3.07;;;13.60;99.90;;;;;;5051148;28;20199;-76
2022/06/20 04:29:46;;;;;;;7.40;2.83;;;13.60;99.90;;;;;;5051096;28;20208;-76
2022/06/20 04:32:29;;;;;;;12.23;2.90;;;13.60;99.90;;;;;;5050700;28;20200;-76
2022/06/20 04:34:57;;;;;;;10.33;2.80;;;13.70;99.90;;;;;;5050546;28;20212;-76
2022/06/20 04:37:42;;;;;;;12.93;2.90;;;13.60;99.90;;;;;;5050914;28;20198;-76
2022/06/20 04:40:30;;;;;;;14.57;3.23;;;13.70;99.90;;;;;;5050835;28;20176;-76
2022/06/20 04:43:01;;;;;;;7.90;2.90;;;13.70;99.90;;;;;;5050520;28;20192;-75
2022/06/20 04:46:02;;;;;;;7.40;2.27;;;13.70;99.90;;;;;;5050788;28;20180;-75
2022/06/20 04:48:28;;;;;;;7.97;3.13;;;13.70;99.90;;;;;;5040320;28;20194;-75
2022/06/20 04:51:07;;;;;;;9.80;2.67;;;13.60;99.90;;;;;;5050638;28;20241;-76
2022/06/20 04:53:36;;;;;;;12.47;2.53;;;13.70;99.90;;;;;;5050506;28;20191;-76
2022/06/20 04:56:09;;;;;;;8.87;2.80;;;13.70;99.90;;;;;;5050690;28;20210;-76
2022/06/20 04:58:51;;;;;;;9.47;2.60;;;13.70;99.90;;;;;;5050821;28;20232;-77
2022/06/20 05:01:18;;;;;;;13.73;3.13;;;13.80;99.90;;;;;;5050339;28;20176;-77
2022/06/20 05:03:55;;;;;;;8.80;2.60;;;13.80;99.90;;;;;;5050286;28;20262;-76
2022/06/20 05:06:24;;;;;;;12.20;2.63;;;13.80;99.90;;;;;;5050677;28;20190;-77
2022/06/20 05:08:53;;;;;;;10.47;3.00;;;13.90;99.90;;;;;;5050607;28;20181;-76
2022/06/20 05:11:31;;;;;;;6.87;2.40;;;14.00;99.90;;;;;;5050307;28;20172;-76
2022/06/20 05:14:01;;;;;;;13.73;2.63;;;13.90;99.90;;;;;;5050605;28;20184;-76
2022/06/20 05:16:31;;;;;;;9.67;2.43;;;14.00;99.90;;;;;;5050587;28;20655;-77
2022/06/20 05:19:07;;;;;;;12.07;2.90;;;14.00;99.90;;;;;;5050564;28;20211;-77
2022/06/20 05:21:39;;;;;;;8.20;2.37;;;14.00;99.90;;;;;;5050199;28;20184;-76
2022/06/20 05:24:16;;;;;;;11.07;2.67;;;14.10;99.90;;;;;;5050392;28;20608;-77
2022/06/20 05:26:45;;;;;;;13.50;2.43;;;14.10;99.90;;;;;;5050513;28;20179;-77
2022/06/20 05:29:24;;;;;;;9.87;2.80;;;14.00;99.90;;;;;;5050513;28;20324;-77
2022/06/20 05:31:53;;;;;;;9.23;2.67;;;14.00;99.90;;;;;;5050180;28;20203;-77
2022/06/20 05:34:24;;;;;;;14.70;2.10;;;14.20;99.90;;;;;;5049595;28;20611;-76
2022/06/20 05:36:57;;;;;;;8.37;2.30;;;14.20;99.90;;;;;;5051698;28;20219;-76
2022/06/20 05:39:35;;;;;;;11.33;2.37;;;14.30;99.90;;;;;;5054274;28;20750;-76
2022/06/20 05:42:01;;;;;;;12.63;2.37;;;14.20;99.90;;;;;;5053938;28;20195;-76
2022/06/20 05:44:27;;;;;;;11.77;2.20;;;14.30;99.90;;;;;;5054081;28;20184;-76
2022/06/20 05:47:12;;;;;;;11.40;2.40;;;14.30;99.90;;;;;;5053985;28;20177;-75
2022/06/20 05:50:02;;;;;;;13.87;2.60;;;14.50;99.90;;;;;;5054097;28;20173;-77
2022/06/20 05:52:30;;;;;;;6.80;2.53;;;14.40;99.90;;;;;;5053668;28;20200;-76
2022/06/20 05:55:11;;;;;;;6.70;2.63;;;14.50;99.90;;;;;;5053810;28;20203;-76
2022/06/20 05:57:40;;;;;;;13.30;2.50;;;14.70;99.90;;;;;;5053846;28;20201;-77
2022/06/20 06:00:16;;;;;;;11.00;2.13;;;14.70;99.90;;;;;;5053746;28;20182;-76
2022/06/20 06:03:00;;;;;;;12.03;2.40;;;14.70;99.90;;;;;;5053314;28;20200;-76
2022/06/20 06:05:34;;;;;;;7.03;2.03;;;14.80;99.90;;;;;;5052936;28;20178;-76
2022/06/20 06:08:24;;;;;;;8.63;2.10;;;14.90;99.90;;;;;;5053353;28;20212;-76
2022/06/20 06:10:59;;;;;;;10.10;2.20;;;14.90;99.90;;;;;;5053323;28;20177;-77
2022/06/20 06:13:55;;;;;;;7.83;2.00;;;15.00;99.90;;;;;;5053039;28;20196;-77
2022/06/20 06:16:48;;;;;;;9.53;2.00;;;15.00;99.90;;;;;;5053462;28;20184;-77
2022/06/20 06:19:42;;;;;;;5.83;2.00;;;15.00;99.90;;;;;;5053337;28;20188;-76
2022/06/20 06:22:35;;;;;;;7.50;2.17;;;15.20;99.90;;;;;;5053357;28;20575;-77
2022/06/20 06:25:27;;;;;;;15.57;2.00;;;15.20;99.90;;;;;;5053393;28;20212;-77
2022/06/20 06:27:57;;;;;;;9.37;2.23;;;15.30;99.90;;;;;;5053162;28;20176;-77
2022/06/20 06:30:29;;;;;;;7.03;1.73;;;15.60;99.90;;;;;;5053295;28;20218;-76
2022/06/20 06:33:04;;;;;;;7.33;2.13;;;16.10;99.90;;;;;;5063567;28;20189;-77
2022/06/20 06:35:41;;;;;;;8.27;2.00;;;16.60;99.90;;;;;;5057359;28;20231;-74
2022/06/20 06:38:37;;;;;;;6.73;2.13;;;16.50;99.90;;;;;;5059693;28;20166;-77
2022/06/20 06:41:07;;;;;;;7.90;2.23;;;16.50;99.90;;;;;;5063344;28;20665;-76
2022/06/20 06:43:43;;;;;;;6.60;2.60;;;16.20;99.90;;;;;;5063749;28;20201;-76
2022/06/20 06:46:19;;;;;;;9.93;1.90;;;16.40;99.90;;;;;;5059113;28;20195;-76
2022/06/20 06:49:17;;;;;;;9.73;2.30;;;16.50;99.90;;;;;;5058457;28;20265;-76
2022/06/20 06:52:03;;;;;;;11.23;2.10;;;17.10;99.90;;;;;;5044926;28;20188;-76
2022/06/20 06:54:41;;;;;;;6.33;1.83;;;16.90;99.90;;;;;;5067664;28;20239;-76
2022/06/20 06:57:13;;;;;;;6.53;2.03;;;16.70;99.90;;;;;;5058528;28;20231;-76
2022/06/20 06:59:51;;;;;;;6.03;2.03;;;16.80;99.90;;;;;;5060878;28;20637;-76
2022/06/20 07:02:24;;;;;;;6.93;2.10;;;16.60;99.90;;;;;;5061415;28;20291;-76
2022/06/20 07:04:58;;;;;;;4.90;2.10;;;16.70;99.90;;;;;;5059348;28;20173;-76
2022/06/20 07:07:37;;;;;;;10.93;2.70;;;16.50;99.90;;;;;;5058214;28;20204;-77
2022/06/20 07:10:03;;;;;;;7.00;2.53;;;16.30;99.90;;;;;;5060673;28;20679;-76
2022/06/20 07:12:45;;;;;;;6.73;2.20;;;16.40;99.90;;;;;;5061249;28;20197;-75
2022/06/20 07:15:17;;;;;;;8.83;2.37;;;16.90;99.90;;;;;;5059499;28;20189;-75
2022/06/20 07:17:49;;;;;;;5.80;1.87;;;17.30;99.90;;;;;;5060383;28;20649;-76
2022/06/20 07:20:16;;;;;;;10.03;2.27;;;18.00;99.90;;;;;;5065809;28;20649;-76
2022/06/20 07:22:44;;;;;;;7.70;2.00;;;18.60;99.90;;;;;;5071614;28;20192;-77
2022/06/20 07:25:22;;;;;;;7.13;2.63;;;18.50;99.90;;;;;;5071634;28;20260;-77
2022/06/20 07:27:56;;;;;;;9.38;1.85;;;18.90;99.90;;;;;;5071574;28;20728;-77
2022/06/20 07:30:27;;;;;;;4.22;1.83;;;19.30;99.90;;;;;;5071765;28;20716;-75
2022/06/20 07:33:00;;;;;;;6.28;2.05;;;19.10;99.90;;;;;;5071359;28;20317;-75
2022/06/20 07:35:42;;;;;;;9.07;1.60;;;18.40;99.90;;;;;;5071079;28;20287;-76
2022/06/20 07:38:17;;;;;;;6.03;2.15;;;18.80;99.90;;;;;;5071322;28;20263;-77
2022/06/20 07:41:09;;;;;;;4.93;1.70;;;18.50;99.90;;;;;;5053937;28;20172;-75
2022/06/20 07:44:01;;;;;;;7.68;1.77;;;18.30;99.90;;;;;;5052028;28;20197;-77
2022/06/20 07:46:52;;;;;;;3.90;1.40;;;17.80;99.90;;;;;;5059164;28;20656;-78
2022/06/20 07:49:31;;;;;;;7.37;1.80;;;18.10;99.70;;;;;;5052391;28;20187;-77
2022/06/20 07:52:02;;;;;;;7.40;2.08;;;18.40;97.90;;;;;;5071332;28;20196;-76
2022/06/20 07:54:44;;;;;;;6.67;1.63;;;18.20;97.40;;;;;;5071513;28;20200;-77
2022/06/20 07:57:35;;;;;;;11.73;1.80;;;17.90;98.20;;;;;;5071359;28;20169;-76
2022/06/20 08:00:07;;;;;;;5.37;1.63;;;17.70;98.70;;;;;;5070842;28;20173;-75
2022/06/20 08:02:39;;;;;;;7.53;1.60;;;18.90;97.60;;;;;;5070950;28;20181;-76
2022/06/20 08:05:06;;;;;;;6.67;1.60;;;19.00;97.20;;;;;;5070787;28;20259;-76
2022/06/20 08:07:36;;;;;;;6.20;1.60;;;18.80;97.00;;;;;;5071142;28;20176;-75
2022/06/20 08:10:07;;;;;;;5.53;1.67;;;19.00;97.40;;;;;;5069707;28;20245;-76
2022/06/20 08:12:56;;;;;;;4.95;1.33;;;19.60;94.60;;;;;;5071037;28;20188;-77
2022/06/20 08:15:25;;;;;;;7.35;1.38;;;20.10;95.20;;;;;;5071183;28;20212;-77
2022/06/20 08:17:52;;;;;;;6.82;1.38;;;20.50;93.50;;;;;;5071176;28;20633;-77
2022/06/20 08:20:19;;;;;;;17.38;2.67;;;19.80;92.50;;;;;;5071150;28;20205;-76
2022/06/20 08:23:00;;;;;;;8.75;1.70;;;19.60;92.60;;;;;;5070770;28;20191;-75
2022/06/20 08:25:59;;;;;;;2.83;1.40;;;18.80;94.00;;;;;;5071098;28;20174;-77
2022/06/20 08:28:44;;;;;;;85.55;7.88;;;18.80;94.20;;;;;;5071052;28;20168;-77
2022/06/20 08:31:31;;;;;;;56.78;8.80;;;18.70;94.30;;;;;;5070893;28;20265;-77
2022/06/20 08:34:15;;;;;;;20.48;3.00;;;18.90;95.00;;;;;;5070627;28;20179;-77
2022/06/20 08:36:48;;;;;;;14.82;1.90;;;19.90;94.30;;;;;;5070571;28;20180;-77
2022/06/20 08:39:14;;;;;;;5.63;1.60;;;20.60;93.60;;;;;;5070723;28;20683;-77
2022/06/20 08:42:14;;;;;;;2.65;1.50;;;20.50;91.60;;;;;;5070445;28;20189;-76
2022/06/20 08:45:08;;;;;;;3.35;1.08;;;20.70;92.40;;;;;;5070822;28;20176;-77
2022/06/20 08:47:56;;;;;;;3.42;1.30;;;21.60;89.60;;;;;;5070772;28;20589;-77
2022/06/20 08:50:57;;;;;;;2.35;1.33;;;20.10;91.70;;;;;;5070395;28;20173;-77
2022/06/20 08:53:43;;;;;;;2.78;1.30;;;19.70;91.30;;;;;;5069237;28;20184;-77
2022/06/20 08:56:39;;;;;;;2.53;1.20;;;19.40;91.80;;;;;;5069156;28;20264;-77
2022/06/20 08:59:28;;;;;;;4.75;1.40;;;19.20;92.30;;;;;;5070851;28;20161;-77
2022/06/20 09:02:15;;;;;;;3.90;1.40;;;19.50;92.00;;;;;;5070136;28;20211;-77
2022/06/20 09:05:05;;;;;;;3.95;1.13;;;20.80;91.30;;;;;;5071585;28;20247;-76
2022/06/20 09:07:43;;;;;;;4.22;1.60;;;20.80;90.50;;;;;;5070694;28;20214;-75
2022/06/20 09:10:31;;;;;;;3.65;1.42;;;21.40;89.70;;;;;;5070875;28;20173;-77
2022/06/20 09:13:19;;;;;;;4.97;1.20;;;21.50;88.50;;;;;;5074500;28;20203;-77
2022/06/20 09:15:47;;;;;;;6.70;1.38;;;20.80;89.30;;;;;;5074587;28;20281;-76
2022/06/20 09:18:43;;;;;;;3.05;1.30;;;20.50;90.20;;;;;;5074689;28;20208;-76
2022/06/20 09:21:33;;;;;;;2.45;1.20;;;20.90;88.80;;;;;;5084464;22;20231;-82
2022/06/20 09:24:32;;;;;;;3.33;1.40;;;20.70;89.50;;;;;;5058611;28;20169;-82
2022/06/20 09:27:18;;;;;;;2.90;1.20;;;21.30;90.00;;;;;;5069800;28;20181;-78
2022/06/20 09:30:02;;;;;;;3.78;1.60;;;22.30;87.60;;;;;;5055318;28;20653;-79
2022/06/20 09:35:49;;;;;;;4.13;1.50;;;22.50;85.00;;;;;;5071923;23;20664;-85
2022/06/20 09:38:43;;;;;;;3.35;1.80;;;22.20;85.40;;;;;;5063800;28;20173;-84
2022/06/20 09:41:40;;;;;;;2.78;1.30;;;21.70;86.00;;;;;;5061219;28;20660;-84
2022/06/20 09:44:27;;;;;;;6.15;1.58;;;22.20;84.70;;;;;;5036714;28;20182;-83
2022/06/20 09:47:00;;;;;;;3.22;1.45;;;22.30;83.40;;;;;;5050508;28;20168;-82
2022/06/20 09:49:32;;;;;;;2.80;1.80;;;22.40;82.50;;;;;;5036406;28;20178;-82
2022/06/20 09:52:04;;;;;;;5.63;2.00;;;22.80;82.30;;;;;;5044688;28;20186;-77
2022/06/20 09:55:01;;;;;;;2.95;1.75;;;22.60;81.80;;;;;;5042110;28;20204;-77
2022/06/20 09:57:55;;;;;;;3.20;1.73;;;22.80;81.50;;;;;;5041028;28;20170;-78
2022/06/20 10:00:24;;;;;;;3.40;1.50;;;23.00;80.40;;;;;;5044722;28;20170;-77
2022/06/20 10:03:08;;;;;;;4.10;1.75;;;23.40;80.80;;;;;;5031946;28;20221;-77
2022/06/20 10:06:06;;;;;;;3.97;1.48;;;23.00;80.10;;;;;;5032064;28;20243;-78
2022/06/20 10:08:50;;;;;;;5.15;1.40;;;22.50;81.70;;;;;;5032207;28;20182;-77
2022/06/20 10:11:29;;;;;;;4.97;1.90;;;21.70;82.10;;;;;;5031547;28;20189;-77
2022/06/20 10:14:24;;;;;;;4.82;1.52;;;21.00;85.30;;;;;;5032040;28;20174;-76
2022/06/20 10:17:10;;;;;;;4.25;1.85;;;21.70;83.90;;;;;;5023115;28;20182;-77
2022/06/20 10:19:48;;;;;;;3.70;1.50;;;22.20;82.50;;;;;;5035151;28;20249;-77
2022/06/20 10:22:31;;;;;;;5.43;1.83;;;22.00;81.50;;;;;;5032591;28;20198;-77
2022/06/20 10:25:32;;;;;;;2.67;1.40;;;21.50;82.30;;;;;;5033782;28;20216;-77
2022/06/20 10:28:04;;;;;;;4.97;1.52;;;21.30;82.00;;;;;;5033792;28;20173;-77
2022/06/20 10:30:54;;;;;;;4.72;1.67;;;21.50;80.80;;;;;;5033653;28;20182;-76
2022/06/20 10:33:45;;;;;;;6.05;1.85;;;21.80;82.40;;;;;;5033146;28;20213;-77
2022/06/20 10:36:18;;;;;;;2.55;1.58;;;22.50;81.30;;;;;;5033368;28;20206;-77
2022/06/20 10:39:22;;;;;;;3.90;1.75;;;23.20;80.70;;;;;;5033343;28;20185;-78
2022/06/20 10:42:02;;;;;;;7.13;1.58;;;24.20;80.00;;;;;;5032678;28;20193;-76
2022/06/20 10:44:58;;;;;;;4.80;1.70;;;23.40;78.60;;;;;;5033105;28;20177;-77
2022/06/20 10:47:34;;;;;;;4.07;1.63;;;23.70;78.10;;;;;;5033186;28;20639;-78
2022/06/20 10:50:24;;;;;;;6.00;1.70;;;24.10;78.20;;;;;;5033045;28;20181;-77
2022/06/20 10:53:22;;;;;;;4.20;1.95;;;24.10;75.80;;;;;;5033870;28;21838;-86
2022/06/20 10:56:28;;;;;;;4.30;2.00;;;23.00;78.40;;;;;;5018310;28;20237;-84
2022/06/20 10:59:13;;;;;;;3.45;1.80;;;22.50;79.00;;;;;;5022916;28;20185;-84
2022/06/20 11:01:38;;;;;;;3.28;1.80;;;22.30;78.20;;;;;;5037193;28;20224;-86
2022/06/20 11:04:25;;;;;;;3.20;1.80;;;21.60;81.00;;;;;;5042033;28;20173;-83
2022/06/20 11:07:25;;;;;;;5.57;1.92;;;21.70;79.90;;;;;;5034895;28;20182;-85
2022/06/20 11:10:10;;;;;;;2.45;1.90;;;22.40;81.10;;;;;;5035254;28;20166;-86
2022/06/20 11:12:48;;;;;;;7.75;1.90;;;23.10;79.10;;;;;;5033789;28;20287;-84
2022/06/20 11:15:45;;;;;;;3.53;2.15;;;23.70;75.60;;;;;;5033408;28;20193;-84
2022/06/20 11:18:13;;;;;;;5.95;1.80;;;24.00;76.90;;;;;;5031873;28;20158;-77
2022/06/20 11:21:05;;;;;;;5.15;2.30;;;24.40;75.50;;;;;;5033882;28;20197;-78
2022/06/20 11:24:08;;;;;;;4.70;2.00;;;24.20;74.50;;;;;;5013357;28;20202;-78
2022/06/20 11:27:14;;;;;;;5.28;2.03;;;23.10;76.10;;;;;;5033404;28;20170;-78
2022/06/20 11:30:01;;;;;;;3.55;2.10;;;22.70;79.00;;;;;;5032175;28;20260;-78
2022/06/20 11:32:35;;;;;;;7.43;2.47;;;23.50;78.60;;;;;;5031964;28;20201;-78
2022/06/20 11:35:14;;;;;;;4.75;2.05;;;24.30;77.40;;;;;;5030378;28;20700;-78
2022/06/20 11:37:54;;;;;;;3.78;1.80;;;24.30;73.80;;;;;;5032314;28;20185;-78
2022/06/20 11:40:42;;;;;;;4.47;1.90;;;24.60;72.30;;;;;;5032014;28;20672;-76
2022/06/20 11:43:28;;;;;;;5.53;1.90;;;23.90;73.60;;;;;;5031443;28;20198;-76
2022/06/20 11:46:25;;;;;;;5.43;1.90;;;23.70;75.20;;;;;;5031840;28;20650;-76
2022/06/20 11:49:30;;;;;;;4.53;2.10;;;23.20;74.40;;;;;;5030414;28;20182;-77
2022/06/20 11:52:00;;;;;;;5.13;1.92;;;23.10;75.80;;;;;;5030017;28;20288;-76
2022/06/20 11:54:50;;;;;;;6.75;2.00;;;22.80;75.80;;;;;;5031313;28;20210;-77
2022/06/20 11:57:43;;;;;;;6.15;1.70;;;22.60;76.30;;;;;;5031542;28;20170;-77
2022/06/20 12:00:22;;;;;;;6.07;1.85;;;21.80;77.30;;;;;;5033047;28;20157;-77
2022/06/20 12:03:16;;;;;;;5.20;2.13;;;21.80;76.20;;;;;;5031208;28;20193;-77
2022/06/20 12:05:54;;;;;;;2.97;1.98;;;22.00;78.00;;;;;;5031674;28;20583;-77
2022/06/20 12:08:36;;;;;;;3.83;1.80;;;22.10;76.80;;;;;;5031545;28;20184;-76
2022/06/20 12:11:29;;;;;;;7.65;2.40;;;22.20;77.40;;;;;;5031470;28;20182;-77
2022/06/20 12:14:34;;;;;;;5.10;1.95;;;21.90;77.50;;;;;;5031372;28;20173;-77
2022/06/20 12:17:09;;;;;;;4.10;1.88;;;22.00;78.30;;;;;;5016914;28;20194;-76
2022/06/20 12:25:42;;;;;;;4.22;1.95;;;21.80;78.00;;;;;;5032786;28;20227;-77
2022/06/20 12:28:23;;;;;;;4.03;2.17;;;22.20;78.10;;;;;;5031120;28;20173;-76
2022/06/20 12:31:07;;;;;;;3.83;1.80;;;22.20;78.50;;;;;;5030968;28;20261;-76
2022/06/20 12:33:35;;;;;;;5.68;2.38;;;22.10;78.20;;;;;;5030837;28;20241;-76
2022/06/20 12:36:27;;;;;;;5.07;2.10;;;21.90;77.40;;;;;;5030837;28;20220;-76
2022/06/20 12:39:05;;;;;;;8.45;1.90;;;21.50;79.40;;;;;;5031140;28;20166;-76
2022/06/20 12:41:37;;;;;;;2.92;1.80;;;21.50;79.60;;;;;;5030606;28;20170;-76
2022/06/20 12:44:24;;;;;;;4.53;1.90;;;21.50;79.30;;;;;;5030970;28;20173;-76
2022/06/20 12:47:06;;;;;;;4.90;1.63;;;21.70;80.10;;;;;;5030648;28;20219;-76
2022/06/20 12:49:44;;;;;;;6.80;2.17;;;21.60;77.60;;;;;;5030858;28;20320;-76
2022/06/20 12:52:19;;;;;;;2.60;1.40;;;21.40;78.20;;;;;;5030429;28;20190;-76
2022/06/20 12:55:01;;;;;;;3.50;1.77;;;21.20;77.10;;;;;;5030744;28;20197;-77
2022/06/20 12:57:27;;;;;;;3.53;1.80;;;21.10;78.40;;;;;;5014473;28;20256;-77
2022/06/20 12:59:56;;;;;;;2.25;1.35;;;21.80;78.20;;;;;;5030684;28;20170;-76
2022/06/20 13:02:43;;;;;;;7.28;1.77;;;22.20;76.70;;;;;;5030453;28;20198;-77
2022/06/20 13:05:28;;;;;;;2.17;1.42;;;22.00;76.50;;;;;;5030808;28;20255;-76
2022/06/20 13:08:11;;;;;;;3.47;1.55;;;22.30;75.60;;;;;;5030811;28;20827;-77
2022/06/20 13:10:49;;;;;;;4.82;1.50;;;22.40;75.60;;;;;;5030686;28;20530;-76
2022/06/20 13:13:32;;;;;;;4.75;1.65;;;21.80;75.40;;;;;;5030335;28;20696;-76
2022/06/20 13:16:21;;;;;;;2.92;1.60;;;21.40;79.80;;;;;;5030514;28;20297;-77
2022/06/20 13:19:12;;;;;;;6.82;1.73;;;22.10;77.10;;;;;;5030735;28;20670;-77
2022/06/20 13:21:46;;;;;;;6.72;1.58;;;22.10;77.60;;;;;;5030002;28;20174;-77
2022/06/20 13:24:36;;;;;;;6.00;1.58;;;22.10;77.40;;;;;;5030470;28;20166;-77
2022/06/20 13:27:11;;;;;;;2.25;1.55;;;21.80;76.40;;;;;;5030493;28;20202;-77
2022/06/20 13:29:55;;;;;;;4.65;1.60;;;21.90;76.20;;;;;;5030325;28;20178;-77
2022/06/20 13:32:29;;;;;;;4.15;1.67;;;21.80;75.80;;;;;;5030184;28;20288;-77
2022/06/20 13:35:05;;;;;;;5.32;1.77;;;22.10;76.80;;;;;;5030027;28;20696;-76
2022/06/20 13:37:45;;;;;;;4.13;1.70;;;22.20;75.90;;;;;;5029827;28;20276;-76
2022/06/20 13:40:20;;;;;;;2.47;1.60;;;22.40;76.50;;;;;;5029465;28;20215;-76
2022/06/20 13:42:57;;;;;;;3.08;1.35;;;22.70;75.70;;;;;;5031090;28;20625;-76
2022/06/20 13:45:25;;;;;;;4.93;1.60;;;22.20;76.50;;;;;;5030441;28;20185;-76
2022/06/20 13:48:02;;;;;;;3.08;1.80;;;22.20;76.50;;;;;;5030363;28;20224;-76
2022/06/20 13:50:46;;;;;;;3.92;1.33;;;22.00;76.50;;;;;;5030335;28;20180;-76
2022/06/20 13:53:21;;;;;;;3.97;1.70;;;21.80;76.70;;;;;;5030079;28;20196;-76
2022/06/20 13:56:02;;;;;;;6.00;1.42;;;21.50;76.60;;;;;;5030153;28;20206;-77
2022/06/20 13:58:34;;;;;;;2.85;1.40;;;21.40;78.30;;;;;;5032192;28;20174;-77
2022/06/20 14:01:13;;;;;;;3.58;1.50;;;21.50;78.10;;;;;;5033779;28;20174;-76